Dades meteomassalio
Diari Summary for Maig 18, 2017 Units:  Metric    English   Both
« Previous Day
Next Day »
Diari Semanal Mensual Anual Personalitzat
  Maxima: Minima: Mijana:
Temperatura: 22.7 °C 10.9 °C 15.5 °C
Rosada: 14.3 °C 7.0 °C 9.7 °C
Humitat: 92 % 43 % 71 %
Velocitat del vent: 55.5 km/h 0.0 km/h 11.1 km/h
Racha vent: 55.5 km/h - -
Vent:- - WNW
Pressio: 1018.8 hPa 1011.1 hPa -
Pluja: 8.9 mm    
Historical Graphs
 
 
Tabular Data for Maig 18, 2017
Time Temperature Dew Point Pressure Wind Wind Speed Wind Gust Humidity Rainfall Rate (Hourly) solar Conditions
00:01 20.4 °C 8.4 °C 1014.1 hPa Calm     46 % 0.0 mm 0.0 W/m2 CLR
00:06 20.4 °C 8.1 °C 1014.1 hPa Calm     45 % 0.0 mm 0.0 W/m2 CLR
00:11 20.4 °C 7.7 °C 1014.1 hPa Calm     44 % 0.0 mm 0.0 W/m2 CLR
00:16 20.5 °C 7.5 °C 1014.1 hPa Calm     43 % 0.0 mm 0.0 W/m2 CLR
00:21 20.6 °C 7.6 °C 1013.8 hPa Calm     43 % 0.0 mm 0.0 W/m2 CLR
00:26 20.6 °C 7.6 °C 1013.8 hPa Calm     43 % 0.0 mm 0.0 W/m2 CLR
00:31 20.4 °C 7.7 °C 1013.8 hPa Calm     44 % 0.0 mm 0.0 W/m2 CLR
00:36 20.1 °C 7.7 °C 1013.8 hPa Calm     45 % 0.0 mm 0.0 W/m2 CLR
00:41 19.8 °C 8.1 °C 1013.8 hPa Calm     47 % 0.0 mm 0.0 W/m2 CLR
00:44 19.6 °C 8.0 °C 1014.1 hPa Calm     47 % 0.0 mm 0.0 W/m2 CLR
00:45 19.6 °C 8.0 °C 1014.1 hPa Calm     47 % 0.0 mm 0.0 W/m2 CLR
00:50 19.6 °C 8.3 °C 1013.8 hPa Calm     48 % 0.0 mm 0.0 W/m2 CLR
00:55 19.5 °C 8.2 °C 1013.8 hPa Calm     48 % 0.0 mm 0.0 W/m2 CLR
01:00 19.3 °C 7.7 °C 1014.1 hPa Calm     47 % 0.0 mm 0.0 W/m2 CLR
01:05 19.4 °C 7.4 °C 1013.8 hPa Calm     46 % 0.0 mm 0.0 W/m2 CLR
01:10 19.4 °C 7.5 °C 1013.8 hPa Calm     46 % 0.0 mm 0.0 W/m2 CLR
01:15 19.3 °C 7.4 °C 1014.1 hPa Calm     46 % 0.0 mm 0.0 W/m2 CLR
01:20 19.4 °C 7.2 °C 1014.1 hPa Calm     45 % 0.0 mm 0.0 W/m2 CLR
01:25 19.5 °C 7.9 °C 1013.8 hPa Calm     47 % 0.0 mm 0.0 W/m2 CLR
01:30 19.2 °C 8.2 °C 1013.8 hPa Calm     49 % 0.0 mm 0.0 W/m2 CLR
01:35 18.8 °C 8.2 °C 1013.8 hPa Calm     50 % 0.0 mm 0.0 W/m2 CLR
01:40 19.1 °C 7.5 °C 1013.4 hPa Calm     47 % 0.0 mm 0.0 W/m2 CLR
01:45 19.0 °C 8.1 °C 1013.4 hPa Calm     49 % 0.0 mm 0.0 W/m2 CLR
01:50 18.8 °C 7.2 °C 1013.4 hPa Calm     47 % 0.0 mm 0.0 W/m2 CLR
01:55 18.9 °C 8.2 °C 1013.4 hPa Calm     50 % 0.0 mm 0.0 W/m2 CLR
02:00 18.7 °C 8.1 °C 1013.4 hPa Calm     50 % 0.0 mm 0.0 W/m2 CLR
02:05 18.5 °C 8.4 °C 1013.4 hPa Calm     52 % 0.0 mm 0.0 W/m2 CLR
02:10 18.2 °C 7.6 °C 1013.4 hPa Calm     50 % 0.0 mm 0.0 W/m2 CLR
02:15 18.2 °C 7.6 °C 1013.4 hPa Calm     50 % 0.0 mm 0.0 W/m2 CLR
02:20 18.2 °C 7.8 °C 1013.4 hPa Calm     51 % 0.0 mm 0.0 W/m2 CLR
02:25 18.1 °C 8.1 °C 1013.4 hPa Calm     52 % 0.0 mm 0.0 W/m2 CLR
02:30 17.8 °C 8.1 °C 1013.4 hPa Calm     53 % 0.0 mm 0.0 W/m2 CLR
02:35 17.7 °C 7.7 °C 1013.1 hPa Calm     52 % 0.0 mm 0.0 W/m2 CLR
02:40 17.5 °C 7.8 °C 1013.1 hPa Calm     53 % 0.0 mm 0.0 W/m2 CLR
02:45 17.3 °C 7.9 °C 1013.1 hPa Calm     54 % 0.0 mm 0.0 W/m2 CLR
02:50 17.1 °C 7.7 °C 1013.4 hPa Calm     54 % 0.0 mm 0.0 W/m2 CLR
02:52 17.0 °C 7.3 °C 1013.1 hPa Calm     53 % 0.0 mm 0.0 W/m2 CLR
02:57 17.1 °C 7.9 °C 1013.1 hPa Calm     55 % 0.0 mm 0.0 W/m2 CLR
03:02 17.0 °C 7.6 °C 1013.1 hPa Calm     54 % 0.0 mm 0.0 W/m2 CLR
03:07 17.0 °C 7.3 °C 1013.1 hPa Calm     53 % 0.0 mm 0.0 W/m2 CLR
03:12 17.1 °C 7.4 °C 1013.1 hPa Calm     53 % 0.0 mm 0.0 W/m2 CLR
03:17 17.1 °C 7.4 °C 1013.1 hPa Calm     53 % 0.0 mm 0.0 W/m2 CLR
03:22 17.2 °C 7.5 °C 1013.1 hPa Calm     53 % 0.0 mm 0.0 W/m2 CLR
03:27 17.2 °C 7.8 °C 1013.1 hPa Calm     54 % 0.0 mm 0.0 W/m2 CLR
03:32 17.2 °C 7.8 °C 1013.1 hPa Calm     54 % 0.0 mm 0.0 W/m2 CLR
03:37 17.1 °C 7.7 °C 1013.1 hPa Calm     54 % 0.0 mm 0.0 W/m2 CLR
03:42 17.0 °C 7.9 °C 1013.1 hPa Calm     55 % 0.0 mm 0.0 W/m2 CLR
03:47 16.9 °C 8.4 °C 1013.1 hPa Calm     57 % 0.0 mm 0.0 W/m2 CLR
03:52 17.0 °C 8.2 °C 1013.1 hPa Calm     56 % 0.0 mm 0.0 W/m2 CLR
03:57 17.0 °C 8.4 °C 1013.1 hPa Calm     57 % 0.0 mm 0.0 W/m2 CLR
04:02 16.9 °C 8.4 °C 1012.8 hPa Calm     57 % 0.0 mm 0.0 W/m2 CLR
04:07 16.9 °C 8.3 °C 1012.8 hPa Calm     57 % 0.0 mm 0.0 W/m2 CLR
04:12 16.8 °C 8.2 °C 1012.8 hPa Calm     57 % 0.0 mm 0.0 W/m2 CLR
04:17 16.7 °C 8.3 °C 1012.8 hPa Calm     58 % 0.0 mm 0.0 W/m2 CLR
04:22 16.6 °C 8.3 °C 1012.8 hPa Calm     58 % 0.0 mm 0.0 W/m2 CLR
04:27 16.4 °C 7.9 °C 1012.8 hPa Calm     57 % 0.0 mm 0.0 W/m2 CLR
04:32 16.2 °C 7.9 °C 1012.8 hPa Calm     58 % 0.0 mm 0.0 W/m2 CLR
04:37 16.1 °C 8.1 °C 1012.8 hPa Calm     59 % 0.0 mm 0.0 W/m2 CLR
04:42 15.9 °C 7.9 °C 1012.8 hPa Calm     59 % 0.0 mm 0.0 W/m2 CLR
04:47 15.5 °C 8.0 °C 1012.4 hPa Calm     61 % 0.0 mm 0.0 W/m2 CLR
04:52 15.3 °C 8.1 °C 1012.4 hPa Calm     62 % 0.0 mm 0.0 W/m2 CLR
04:57 15.3 °C 8.1 °C 1012.4 hPa Calm     62 % 0.0 mm 0.0 W/m2 CLR
05:02 15.3 °C 8.1 °C 1012.4 hPa Calm     62 % 0.0 mm 0.0 W/m2 CLR
05:07 15.4 °C 8.2 °C 1012.4 hPa Calm     62 % 0.0 mm 0.0 W/m2 CLR
05:12 15.4 °C 8.4 °C 1012.4 hPa Calm     63 % 0.0 mm 0.0 W/m2 CLR
05:17 15.3 °C 8.3 °C 1012.4 hPa Calm     63 % 0.0 mm 0.0 W/m2 CLR
05:22 15.1 °C 8.3 °C 1012.1 hPa Calm     64 % 0.0 mm 0.0 W/m2 CLR
05:27 14.9 °C 7.9 °C 1012.1 hPa Calm     63 % 0.0 mm 0.0 W/m2 CLR
05:32 14.7 °C 8.0 °C 1012.1 hPa Calm     64 % 0.0 mm 0.0 W/m2 CLR
05:37 14.6 °C 8.1 °C 1012.1 hPa Calm     65 % 0.0 mm 0.0 W/m2 CLR
05:42 14.2 °C 7.9 °C 1012.1 hPa Calm     66 % 0.0 mm 0.0 W/m2 CLR
05:47 14.1 °C 8.1 °C 1012.1 hPa Calm     67 % 0.0 mm 0.0 W/m2 CLR
05:52 14.1 °C 8.0 °C 1012.1 hPa Calm     67 % 0.0 mm 0.0 W/m2 CLR
05:57 14.1 °C 8.0 °C 1012.1 hPa Calm     67 % 0.0 mm 0.0 W/m2 CLR
06:02 14.1 °C 8.0 °C 1012.1 hPa Calm     67 % 0.0 mm 0.0 W/m2 CLR
06:07 14.0 °C 7.9 °C 1012.1 hPa Calm     67 % 0.0 mm 0.0 W/m2 CLR
06:12 14.0 °C 7.9 °C 1012.1 hPa Calm     67 % 0.0 mm 0.0 W/m2 CLR
06:17 13.9 °C 7.8 °C 1011.7 hPa Calm     67 % 0.0 mm 0.0 W/m2 CLR
06:22 13.8 °C 7.9 °C 1012.1 hPa Calm     68 % 0.0 mm 0.0 W/m2 CLR
06:27 13.7 °C 7.9 °C 1012.1 hPa Calm     68 % 0.0 mm 0.0 W/m2 CLR
06:32 13.6 °C 7.8 °C 1012.1 hPa Calm     68 % 0.0 mm 0.0 W/m2 OVC
06:37 13.5 °C 7.9 °C 1012.1 hPa Calm     69 % 0.0 mm 0.0 W/m2 OVC
06:42 13.4 °C 7.8 °C 1012.1 hPa Calm     69 % 0.0 mm 5.0 W/m2 OVC
06:47 13.3 °C 7.9 °C 1012.1 hPa Calm     70 % 0.0 mm 9.0 W/m2 BKN
06:52 13.2 °C 7.9 °C 1012.1 hPa Calm     70 % 0.0 mm 12.0 W/m2 BKN
06:57 13.1 °C 7.9 °C 1012.1 hPa Calm     71 % 0.0 mm 19.0 W/m2 BKN
07:02 13.0 °C 7.9 °C 1012.1 hPa Calm     71 % 0.0 mm 26.0 W/m2 BKN
07:07 13.0 °C 8.1 °C 1012.1 hPa Calm     72 % 0.0 mm 28.0 W/m2 BKN
07:12 13.1 °C 8.1 °C 1012.1 hPa Calm     72 % 0.0 mm 33.0 W/m2 BKN
07:17 13.1 °C 8.2 °C 1012.1 hPa Calm     72 % 0.0 mm 40.0 W/m2 BKN
07:22 13.2 °C 8.1 °C 1012.1 hPa Calm     71 % 0.0 mm 42.0 W/m2 BKN
07:27 13.4 °C 8.0 °C 1012.1 hPa Calm     70 % 0.0 mm 56.0 W/m2 SCT
07:33 13.6 °C 8.0 °C 1012.1 hPa Calm     69 % 0.0 mm 69.0 W/m2 FEW
07:38 13.8 °C 8.2 °C 1012.1 hPa Calm     69 % 0.0 mm 81.0 W/m2 FEW
07:43 14.1 °C 8.0 °C 1012.1 hPa Calm     67 % 0.0 mm 100.0 W/m2 FEW
07:48 14.3 °C 8.0 °C 1012.1 hPa Calm     66 % 0.0 mm 139.0 W/m2 CLR
07:53 14.6 °C 8.3 °C 1012.1 hPa Calm     66 % 0.0 mm 176.0 W/m2 CLR
07:58 15.0 °C 8.7 °C 1012.1 hPa Calm     66 % 0.0 mm 214.0 W/m2 CLR
08:03 15.4 °C 8.7 °C 1012.1 hPa Calm     64 % 0.0 mm 221.0 W/m2 CLR
08:08 15.9 °C 8.8 °C 1012.1 hPa Calm     63 % 0.0 mm 221.0 W/m2 CLR
08:13 16.2 °C 8.9 °C 1012.1 hPa Calm     62 % 0.0 mm 221.0 W/m2 CLR
08:18 16.4 °C 8.9 °C 1012.1 hPa Calm     61 % 0.0 mm 193.0 W/m2 CLR
08:23 16.7 °C 8.9 °C 1012.1 hPa Calm     60 % 0.0 mm 149.0 W/m2 CLR
08:28 16.8 °C 9.0 °C 1012.1 hPa Calm     60 % 0.0 mm 76.0 W/m2 CLR
08:33 17.0 °C 9.2 °C 1012.1 hPa Calm     60 % 0.0 mm 178.0 W/m2 CLR
08:38 17.1 °C 9.1 °C 1012.1 hPa Calm     59 % 0.0 mm 290.0 W/m2 CLR
08:43 17.5 °C 9.4 °C 1012.1 hPa Calm     59 % 0.0 mm 360.0 W/m2 CLR
08:48 18.1 °C 9.4 °C 1012.1 hPa Calm     57 % 0.0 mm 345.0 W/m2 CLR
08:53 18.5 °C 9.6 °C 1011.7 hPa Calm     56 % 0.0 mm 309.0 W/m2 CLR
08:58 18.7 °C 9.5 °C 1011.7 hPa Calm     55 % 0.0 mm 381.0 W/m2 CLR
09:03 18.9 °C 9.7 °C 1011.7 hPa Calm     55 % 0.0 mm 418.0 W/m2 CLR
09:08 19.3 °C 10.0 °C 1011.7 hPa Calm     55 % 0.0 mm 468.0 W/m2 CLR
09:13 19.3 °C 9.8 °C 1011.7 hPa Calm     54 % 0.0 mm 162.0 W/m2 CLR
09:18 19.1 °C 9.8 °C 1011.7 hPa Calm     55 % 0.0 mm 174.0 W/m2 CLR
09:23 18.9 °C 9.9 °C 1011.7 hPa Calm     56 % 0.0 mm 257.0 W/m2 CLR
09:28 19.1 °C 10.3 °C 1011.4 hPa Calm     57 % 0.0 mm 345.0 W/m2 CLR
09:33 19.3 °C 10.6 °C 1011.4 hPa Calm     57 % 0.0 mm 281.0 W/m2 CLR
09:38 19.6 °C 11.1 °C 1011.4 hPa Calm     58 % 0.0 mm 557.0 W/m2 CLR
09:43 19.8 °C 11.1 °C 1011.4 hPa Calm     57 % 0.0 mm 172.0 W/m2 CLR
09:48 19.8 °C 10.8 °C 1011.4 hPa Calm     56 % 0.0 mm 318.0 W/m2 CLR
09:53 20.0 °C 10.9 °C 1011.4 hPa Calm     56 % 0.0 mm 563.0 W/m2 CLR
09:58 20.3 °C 10.7 °C 1011.1 hPa Calm     54 % 0.0 mm 366.0 W/m2 CLR
10:03 20.6 °C 10.9 °C 1011.1 hPa Calm     54 % 0.0 mm 552.0 W/m2 CLR
10:08 20.8 °C 10.9 °C 1011.1 hPa Calm     53 % 0.0 mm 578.0 W/m2 CLR
10:13 21.1 °C 11.2 °C 1011.1 hPa Calm     53 % 0.0 mm 605.0 W/m2 CLR
10:18 21.7 °C 11.1 °C 1011.4 hPa Calm     51 % 0.0 mm 617.0 W/m2 CLR
10:23 21.9 °C 11.1 °C 1011.4 hPa Calm     50 % 0.0 mm 559.0 W/m2 CLR
10:24 21.9 °C 11.3 °C 1011.4 hPa Calm     51 % 0.0 mm 559.0 W/m2 CLR
10:29 22.0 °C 11.1 °C 1011.4 hPa NNE 3.2 km/h 3.2 km/h 50 % 0.0 mm 234.0 W/m2 CLR
10:34 22.1 °C 11.5 °C 1011.4 hPa Calm     51 % 0.0 mm 659.0 W/m2 CLR
10:39 22.4 °C 11.2 °C 1011.4 hPa Calm     49 % 0.0 mm 596.0 W/m2 CLR
10:44 22.6 °C 11.9 °C 1011.4 hPa ENE 13.0 km/h 13.0 km/h 51 % 0.0 mm 705.0 W/m2 CLR
10:49 22.7 °C 12.1 °C 1011.1 hPa ENE 9.3 km/h 9.3 km/h 51 % 0.0 mm 874.0 W/m2 CLR
10:54 22.6 °C 11.3 °C 1011.1 hPa East 13.0 km/h 13.0 km/h 49 % 0.0 mm 316.0 W/m2 CLR
10:59 22.2 °C 11.8 °C 1011.4 hPa North 9.7 km/h 9.7 km/h 52 % 0.0 mm 318.0 W/m2 CLR
11:04 22.1 °C 12.1 °C 1011.7 hPa NNW 13.0 km/h 13.0 km/h 53 % 0.0 mm 355.0 W/m2 CLR
11:09 21.9 °C 11.6 °C 1011.7 hPa NNW 18.5 km/h 18.5 km/h 52 % 0.0 mm 297.0 W/m2 CLR
11:14 21.3 °C 11.6 °C 1012.1 hPa NW 24.1 km/h 24.1 km/h 54 % 0.0 mm 258.0 W/m2 CLR
11:19 20.6 °C 11.7 °C 1012.1 hPa NW 29.6 km/h 29.6 km/h 57 % 0.0 mm 485.0 W/m2 CLR
11:24 20.8 °C 12.3 °C 1012.1 hPa North 29.6 km/h 29.6 km/h 58 % 0.0 mm 912.0 W/m2 CLR
11:29 21.4 °C 12.3 °C 1012.4 hPa North 31.5 km/h 31.5 km/h 56 % 0.0 mm 983.0 W/m2 CLR
11:34 21.8 °C 12.3 °C 1012.4 hPa NNW 30.6 km/h 30.6 km/h 55 % 0.0 mm 991.0 W/m2 CLR
11:39 21.5 °C 12.9 °C 1012.8 hPa NNW 30.6 km/h 30.6 km/h 58 % 0.0 mm 422.0 W/m2 CLR
11:40 21.4 °C 13.1 °C 1012.8 hPa NNW 24.1 km/h 24.3 km/h 59 % 0.0 mm 436.0 W/m2 CLR
11:45 20.7 °C 12.7 °C 1012.8 hPa NNW 37.0 km/h 37.0 km/h 60 % 0.0 mm 306.0 W/m2 CLR
11:50 19.9 °C 12.9 °C 1013.1 hPa NNW 37.0 km/h 37.0 km/h 64 % 0.0 mm 364.0 W/m2 CLR
11:55 19.5 °C 13.4 °C 1013.1 hPa NNW 33.3 km/h 33.3 km/h 68 % 0.0 mm 355.0 W/m2 CLR
12:00 19.3 °C 13.1 °C 1013.1 hPa NNW 22.2 km/h 22.2 km/h 67 % 0.0 mm 292.0 W/m2 CLR
12:05 19.5 °C 13.2 °C 1013.1 hPa NNW 18.5 km/h 18.5 km/h 67 % 0.0 mm 364.0 W/m2 CLR
12:10 19.7 °C 13.6 °C 1013.1 hPa NNW 24.1 km/h 24.1 km/h 68 % 0.0 mm 520.0 W/m2 CLR
12:15 19.8 °C 13.5 °C 1013.4 hPa NW 20.4 km/h 20.4 km/h 67 % 0.0 mm 388.0 W/m2 CLR
12:20 19.7 °C 13.2 °C 1013.4 hPa NNW 25.9 km/h 25.9 km/h 66 % 0.0 mm 248.0 W/m2 CLR
12:25 19.4 °C 13.2 °C 1013.4 hPa NW 31.5 km/h 31.5 km/h 67 % 0.0 mm 172.0 W/m2 CLR
12:30 19.1 °C 12.8 °C 1013.1 hPa NNW 25.9 km/h 25.9 km/h 67 % 0.0 mm 114.0 W/m2 CLR
12:35 18.8 °C 13.0 °C 1013.4 hPa NW 24.1 km/h 24.1 km/h 69 % 0.0 mm 116.0 W/m2 CLR
12:40 18.4 °C 13.4 °C 1013.8 hPa NW 31.5 km/h 31.5 km/h 73 % 0.0 mm 107.0 W/m2 CLR
12:45 18.1 °C 13.2 °C 1014.1 hPa NW 29.0 km/h 29.0 km/h 73 % 0.0 mm 83.0 W/m2 CLR
12:50 17.7 °C 12.8 °C 1014.1 hPa NW 32.2 km/h 32.2 km/h 73 % 0.0 mm 56.0 W/m2 CLR
12:55 17.4 °C 12.5 °C 1014.1 hPa WNW 31.5 km/h 31.5 km/h 73 % 0.0 mm 40.0 W/m2 SCT
13:00 17.1 °C 13.1 °C 1014.4 hPa NW 24.1 km/h 24.1 km/h 77 % 0.0 mm 25.0 W/m2 BKN
13:05 16.7 °C 13.3 °C 1014.4 hPa WNW 18.5 km/h 18.5 km/h 80 % 0.0 mm 21.0 W/m2 BKN
13:10 16.4 °C 13.3 °C 1014.8 hPa WNW 22.2 km/h 22.2 km/h 82 % 0.0 mm 21.0 W/m2 BKN
13:11 16.4 °C 13.3 °C 1014.8 hPa WNW 20.4 km/h 20.4 km/h 82 % 0.3 mm 23.0 W/m2 RA
13:16 16.1 °C 13.4 °C 1014.8 hPa WNW 13.0 km/h 13.0 km/h 84 % 0.5 mm 28.0 W/m2 RA
13:21 16.0 °C 13.7 °C 1014.4 hPa Calm     86 % 0.5 mm 44.0 W/m2 RA
13:26 15.8 °C 13.5 °C 1013.8 hPa NNE 11.3 km/h 11.3 km/h 86 % 0.8 mm 121.0 W/m2 RA
13:31 15.8 °C 13.7 °C 1013.8 hPa Calm     87 % 1.3 mm 200.0 W/m2 RA
13:36 15.8 °C 13.7 °C 1013.8 hPa Calm     87 % 1.5 mm 200.0 W/m2 RA
13:41 15.8 °C 13.8 °C 1013.8 hPa Calm     88 % 1.5 mm 81.0 W/m2 RA
13:46 15.8 °C 13.8 °C 1014.4 hPa Calm     88 % 1.8 mm 49.0 W/m2 RA
13:51 15.8 °C 13.8 °C 1014.4 hPa West 14.8 km/h 14.8 km/h 88 % 1.8 mm 47.0 W/m2 SCT
13:56 15.7 °C 13.9 °C 1014.1 hPa Calm     89 % 2.3 mm 33.0 W/m2 RA
14:01 15.7 °C 13.8 °C 1013.4 hPa Calm     89 % 2.3 mm 37.0 W/m2 BKN
14:06 15.6 °C 13.8 °C 1013.4 hPa Calm     89 % 2.5 mm 33.0 W/m2 RA
14:11 15.5 °C 13.7 °C 1013.4 hPa Calm     89 % 2.3 mm 30.0 W/m2 BKN
14:16 15.5 °C 13.7 °C 1013.4 hPa Calm     89 % 2.8 mm 30.0 W/m2 RA
14:21 15.4 °C 13.6 °C 1013.1 hPa SE 1.9 km/h   89 % 2.8 mm 39.0 W/m2 RA
14:26 15.4 °C 13.6 °C 1012.8 hPa SE 5.6 km/h   89 % 2.5 mm 53.0 W/m2 BKN
14:31 15.4 °C 13.8 °C 1012.8 hPa Calm     90 % 2.3 mm 51.0 W/m2 RA
14:36 15.4 °C 13.8 °C 1012.8 hPa Calm     90 % 2.3 mm 54.0 W/m2 SCT
14:41 15.3 °C 13.7 °C 1012.8 hPa Calm     90 % 2.0 mm 69.0 W/m2 SCT
14:46 15.4 °C 13.8 °C 1012.8 hPa Calm     90 % 1.8 mm 83.0 W/m2 FEW
14:51 15.4 °C 13.8 °C 1013.1 hPa Calm     90 % 2.0 mm 72.0 W/m2 RA
14:57 15.4 °C 13.8 °C 1013.1 hPa Calm     90 % 1.5 mm 60.0 W/m2 FEW
15:02 15.4 °C 13.8 °C 1013.1 hPa Calm     90 % 1.5 mm 49.0 W/m2 SCT
15:07 15.3 °C 13.7 °C 1013.1 hPa Calm     90 % 1.3 mm 83.0 W/m2 SCT
15:08 15.3 °C 13.7 °C 1013.1 hPa Calm     90 % 1.3 mm 88.0 W/m2 SCT
15:13 15.2 °C 13.6 °C 1013.1 hPa Calm     90 % 1.0 mm 109.0 W/m2 FEW
15:18 15.4 °C 13.8 °C 1012.8 hPa Calm     90 % 0.5 mm 84.0 W/m2 CLR
15:23 15.4 °C 13.8 °C 1012.4 hPa Calm     90 % 0.5 mm 74.0 W/m2 CLR
15:28 15.4 °C 13.8 °C 1012.8 hPa Calm     90 % 0.5 mm 84.0 W/m2 RA
15:33 15.5 °C 13.9 °C 1012.8 hPa North 5.6 km/h 5.6 km/h 90 % 0.5 mm 47.0 W/m2 RA
15:38 15.4 °C 13.8 °C 1012.4 hPa NNE 7.4 km/h 7.4 km/h 90 % 0.5 mm 47.0 W/m2 SCT
15:43 15.4 °C 13.8 °C 1013.1 hPa North 5.6 km/h 5.6 km/h 90 % 1.0 mm 79.0 W/m2 RA
15:48 15.4 °C 13.9 °C 1012.8 hPa Calm     91 % 1.0 mm 237.0 W/m2 RA
15:53 15.6 °C 14.1 °C 1013.1 hPa Calm     91 % 1.0 mm 225.0 W/m2 CLR
15:59 15.7 °C 14.3 °C 1013.4 hPa NNW 13.0 km/h 13.0 km/h 91 % 1.3 mm 137.0 W/m2 RA
16:04 15.4 °C 13.8 °C 1013.4 hPa North 19.3 km/h 19.3 km/h 90 % 1.3 mm 334.0 W/m2 CLR
16:09 13.9 °C 11.2 °C 1014.4 hPa NW 55.5 km/h 55.5 km/h 84 % 1.3 mm 54.0 W/m2 CLR
16:14 12.6 °C 10.6 °C 1014.8 hPa NW 42.6 km/h 42.6 km/h 88 % 1.3 mm 49.0 W/m2 FEW
16:19 12.0 °C 10.1 °C 1014.8 hPa NNW 40.7 km/h 40.7 km/h 88 % 1.3 mm 42.0 W/m2 SCT
16:24 11.8 °C 9.8 °C 1014.4 hPa NW 40.7 km/h 40.7 km/h 88 % 1.3 mm 70.0 W/m2 SCT
16:29 11.7 °C 9.9 °C 1014.8 hPa NW 35.2 km/h 35.2 km/h 89 % 1.0 mm 67.0 W/m2 SCT
16:34 11.6 °C 9.8 °C 1014.8 hPa NNW 33.3 km/h 33.3 km/h 89 % 0.8 mm 67.0 W/m2 FEW
16:39 11.6 °C 10.0 °C 1014.4 hPa NW 31.5 km/h 31.5 km/h 90 % 0.8 mm 109.0 W/m2 FEW
16:44 11.6 °C 10.0 °C 1014.8 hPa NW 37.0 km/h 37.0 km/h 90 % 0.5 mm 111.0 W/m2 CLR
16:49 11.6 °C 10.0 °C 1014.8 hPa NNW 25.9 km/h 25.9 km/h 90 % 0.3 mm 83.0 W/m2 CLR
16:54 11.6 °C 10.0 °C 1014.8 hPa NW 24.1 km/h 24.1 km/h 90 % 0.3 mm 83.0 W/m2 CLR
16:59 11.6 °C 9.9 °C 1015.1 hPa WNW 25.9 km/h 25.9 km/h 90 % 0.0 mm 91.0 W/m2 CLR
17:04 11.6 °C 10.0 °C 1015.1 hPa NW 18.5 km/h 18.5 km/h 90 % 0.0 mm 100.0 W/m2 CLR
17:09 11.6 °C 10.0 °C 1015.5 hPa WSW 22.2 km/h 22.2 km/h 90 % 0.0 mm 47.0 W/m2 CLR
17:14 11.6 °C 9.8 °C 1015.8 hPa West 25.9 km/h 25.9 km/h 89 % 0.0 mm 18.0 W/m2 SCT
17:19 11.6 °C 9.9 °C 1015.8 hPa West 31.5 km/h 31.5 km/h 90 % 0.0 mm 28.0 W/m2 BKN
17:24 11.5 °C 9.9 °C 1015.8 hPa WNW 29.6 km/h 29.6 km/h 90 % 0.3 mm 26.0 W/m2 RA
17:29 11.3 °C 9.8 °C 1015.8 hPa West 31.5 km/h 31.5 km/h 90 % 0.5 mm 30.0 W/m2 RA
17:34 11.3 °C 9.7 °C 1015.5 hPa WNW 25.9 km/h 25.9 km/h 90 % 0.8 mm 37.0 W/m2 RA
17:39 11.3 °C 9.9 °C 1015.8 hPa West 22.5 km/h 22.5 km/h 91 % 1.0 mm 30.0 W/m2 RA
17:44 11.2 °C 9.8 °C 1015.5 hPa NW 20.4 km/h 20.4 km/h 91 % 1.5 mm 40.0 W/m2 RA
17:49 11.2 °C 9.8 °C 1015.5 hPa WNW 25.9 km/h 25.9 km/h 91 % 2.0 mm 51.0 W/m2 RA
17:54 11.2 °C 9.8 °C 1015.5 hPa WNW 27.8 km/h 27.8 km/h 91 % 2.3 mm 49.0 W/m2 RA
17:59 11.2 °C 9.8 °C 1015.8 hPa WNW 20.4 km/h 20.4 km/h 91 % 2.5 mm 62.0 W/m2 RA
18:04 11.2 °C 9.8 °C 1015.8 hPa West 18.5 km/h 18.5 km/h 91 % 3.0 mm 72.0 W/m2 RA
18:09 11.2 °C 9.9 °C 1015.8 hPa WNW 13.0 km/h 13.0 km/h 92 % 3.3 mm 70.0 W/m2 RA
18:14 11.2 °C 9.9 °C 1015.8 hPa WNW 14.5 km/h 14.5 km/h 92 % 3.6 mm 42.0 W/m2 RA
18:19 11.1 °C 9.7 °C 1016.1 hPa WNW 18.5 km/h 18.5 km/h 91 % 3.8 mm 76.0 W/m2 RA
18:24 11.1 °C 9.7 °C 1016.1 hPa NW 25.7 km/h 25.7 km/h 91 % 3.6 mm 42.0 W/m2 SCT
18:29 11.1 °C 9.7 °C 1016.5 hPa NW 22.2 km/h 22.2 km/h 91 % 3.3 mm 60.0 W/m2 SCT
18:34 11.1 °C 9.7 °C 1016.1 hPa NW 24.1 km/h 24.1 km/h 91 % 3.0 mm 77.0 W/m2 RA
18:39 11.1 °C 9.7 °C 1016.1 hPa NNW 18.5 km/h 18.5 km/h 91 % 2.8 mm 70.0 W/m2 FEW
18:44 11.1 °C 9.7 °C 1016.1 hPa NW 22.2 km/h 22.2 km/h 91 % 2.3 mm 84.0 W/m2 FEW
18:49 11.2 °C 9.8 °C 1016.1 hPa NNW 20.9 km/h 20.9 km/h 91 % 2.0 mm 118.0 W/m2 FEW
18:54 11.3 °C 9.9 °C 1016.5 hPa WNW 22.2 km/h 22.2 km/h 91 % 1.5 mm 86.0 W/m2 CLR
18:59 11.3 °C 9.8 °C 1016.5 hPa NW 27.8 km/h 27.8 km/h 90 % 1.5 mm 128.0 W/m2 CLR
19:04 11.4 °C 9.8 °C 1016.5 hPa NW 18.5 km/h 18.5 km/h 90 % 1.0 mm 223.0 W/m2 CLR
19:09 11.6 °C 9.9 °C 1016.5 hPa WNW 22.2 km/h 22.2 km/h 90 % 0.5 mm 232.0 W/m2 CLR
19:14 11.6 °C 9.8 °C 1016.8 hPa NW 24.1 km/h 24.1 km/h 89 % 0.5 mm 102.0 W/m2 CLR
19:20 11.6 °C 9.8 °C 1016.8 hPa WNW 20.4 km/h 20.4 km/h 89 % 0.3 mm 91.0 W/m2 CLR
19:25 11.5 °C 9.6 °C 1016.5 hPa NNW 33.3 km/h 33.3 km/h 88 % 0.3 mm 84.0 W/m2 CLR
19:30 11.4 °C 9.5 °C 1016.5 hPa WNW 25.9 km/h 25.9 km/h 88 % 0.3 mm 98.0 W/m2 CLR
19:35 11.4 °C 9.5 °C 1016.8 hPa West 18.5 km/h 18.5 km/h 88 % 0.0 mm 146.0 W/m2 CLR
19:40 11.5 °C 9.4 °C 1016.5 hPa WNW 20.9 km/h 20.9 km/h 87 % 0.0 mm 141.0 W/m2 CLR
19:45 11.6 °C 9.7 °C 1016.5 hPa WNW 20.4 km/h 20.4 km/h 88 % 0.0 mm 123.0 W/m2 CLR
19:50 11.7 °C 9.6 °C 1016.5 hPa WNW 25.9 km/h 25.9 km/h 87 % 0.0 mm 123.0 W/m2 CLR
19:55 11.7 °C 9.4 °C 1016.5 hPa West 25.9 km/h 25.9 km/h 86 % 0.0 mm 65.0 W/m2 CLR
20:00 11.8 °C 9.5 °C 1016.8 hPa West 27.8 km/h 27.8 km/h 86 % 0.0 mm 158.0 W/m2 CLR
20:05 11.9 °C 9.4 °C 1016.8 hPa WNW 24.1 km/h 24.1 km/h 85 % 0.0 mm 127.0 W/m2 CLR
20:10 12.1 °C 9.6 °C 1016.8 hPa WNW 22.2 km/h 22.2 km/h 85 % 0.0 mm 111.0 W/m2 CLR
20:15 12.0 °C 9.6 °C 1016.8 hPa WNW 18.5 km/h 18.5 km/h 85 % 0.0 mm 39.0 W/m2 BKN
20:20 12.1 °C 9.6 °C 1016.8 hPa West 22.2 km/h 22.2 km/h 85 % 0.0 mm 79.0 W/m2 BKN
20:25 12.2 °C 9.6 °C 1016.8 hPa West 17.7 km/h 17.7 km/h 84 % 0.0 mm 65.0 W/m2 FEW
20:30 12.2 °C 9.4 °C 1017.2 hPa WNW 20.4 km/h 20.4 km/h 83 % 0.0 mm 23.0 W/m2 BKN
20:35 12.1 °C 9.1 °C 1017.2 hPa WNW 32.2 km/h 32.2 km/h 82 % 0.0 mm 25.0 W/m2 BKN
20:40 12.1 °C 9.1 °C 1017.2 hPa WNW 29.6 km/h 29.6 km/h 82 % 0.0 mm 30.0 W/m2 BKN
20:45 12.1 °C 9.1 °C 1017.2 hPa West 24.1 km/h 24.1 km/h 82 % 0.0 mm 23.0 W/m2 BKN
20:50 12.0 °C 8.8 °C 1016.8 hPa WNW 30.6 km/h 30.6 km/h 81 % 0.0 mm 16.0 W/m2 BKN
20:55 11.8 °C 8.7 °C 1017.2 hPa WNW 25.9 km/h 25.9 km/h 81 % 0.0 mm 12.0 W/m2 BKN
21:00 11.7 °C 8.7 °C 1017.2 hPa WNW 30.6 km/h 30.6 km/h 82 % 0.0 mm 11.0 W/m2 BKN
21:05 11.7 °C 8.5 °C 1017.2 hPa WNW 27.8 km/h 27.8 km/h 81 % 0.0 mm 9.0 W/m2 BKN
21:10 11.6 °C 8.4 °C 1017.2 hPa WNW 31.5 km/h 31.5 km/h 81 % 0.0 mm 5.0 W/m2 BKN
21:15 11.6 °C 8.4 °C 1017.2 hPa WNW 31.5 km/h 31.5 km/h 81 % 0.0 mm 0.0 W/m2 OVC
21:20 11.6 °C 8.4 °C 1017.2 hPa WNW 31.5 km/h 31.5 km/h 81 % 0.0 mm 0.0 W/m2 OVC
21:25 11.4 °C 8.3 °C 1017.5 hPa WNW 27.8 km/h 27.8 km/h 81 % 0.0 mm 0.0 W/m2 CLR
21:30 11.4 °C 8.2 °C 1017.8 hPa WNW 22.2 km/h 22.2 km/h 81 % 0.0 mm 0.0 W/m2 CLR
21:35 11.3 °C 8.0 °C 1017.8 hPa NW 35.2 km/h 35.2 km/h 80 % 0.0 mm 0.0 W/m2 CLR
21:40 11.3 °C 7.8 °C 1017.8 hPa WNW 25.9 km/h 25.9 km/h 79 % 0.0 mm 0.0 W/m2 CLR
21:45 11.2 °C 7.7 °C 1018.2 hPa WNW 24.1 km/h 24.1 km/h 79 % 0.0 mm 0.0 W/m2 CLR
21:50 11.2 °C 7.7 °C 1018.2 hPa WNW 22.5 km/h 22.5 km/h 79 % 0.0 mm 0.0 W/m2 CLR
21:55 11.2 °C 7.7 °C 1018.2 hPa WNW 18.5 km/h 18.5 km/h 79 % 0.0 mm 0.0 W/m2 CLR
22:00 11.2 °C 7.7 °C 1018.2 hPa West 22.2 km/h 22.2 km/h 79 % 0.0 mm 0.0 W/m2 CLR
22:05 11.2 °C 7.7 °C 1018.5 hPa West 18.5 km/h 18.5 km/h 79 % 0.0 mm 0.0 W/m2 CLR
22:10 11.1 °C 7.6 °C 1018.5 hPa West 18.5 km/h 18.5 km/h 79 % 0.0 mm 0.0 W/m2 CLR
22:15 11.1 °C 7.6 °C 1018.5 hPa West 20.4 km/h 20.4 km/h 79 % 0.0 mm 0.0 W/m2 CLR
22:20 11.1 °C 7.4 °C 1018.5 hPa WNW 22.5 km/h 22.5 km/h 78 % 0.0 mm 0.0 W/m2 CLR
22:25 11.1 °C 7.4 °C 1018.5 hPa West 20.9 km/h 20.9 km/h 78 % 0.0 mm 0.0 W/m2 CLR
22:30 11.1 °C 7.2 °C 1018.5 hPa West 24.1 km/h 24.1 km/h 77 % 0.0 mm 0.0 W/m2 CLR
22:35 11.1 °C 7.2 °C 1018.5 hPa NW 27.8 km/h 27.8 km/h 77 % 0.0 mm 0.0 W/m2 CLR
22:40 11.1 °C 7.2 °C 1018.5 hPa WNW 22.5 km/h 22.5 km/h 77 % 0.0 mm 0.0 W/m2 CLR
22:45 11.1 °C 7.2 °C 1018.5 hPa WNW 27.4 km/h 27.4 km/h 77 % 0.0 mm 0.0 W/m2 CLR
22:50 11.2 °C 7.1 °C 1018.5 hPa WNW 22.2 km/h 22.2 km/h 76 % 0.0 mm 0.0 W/m2 CLR
22:55 11.1 °C 7.1 °C 1018.8 hPa WNW 24.1 km/h 24.1 km/h 76 % 0.0 mm 0.0 W/m2 CLR
23:00 11.0 °C 7.1 °C 1018.8 hPa WNW 16.7 km/h 16.7 km/h 77 % 0.0 mm 0.0 W/m2 CLR
23:05 10.9 °C 7.1 °C 1018.8 hPa WNW 22.2 km/h 22.2 km/h 77 % 0.0 mm 0.0 W/m2 CLR
23:10 11.0 °C 7.1 °C 1018.8 hPa WNW 14.8 km/h 14.8 km/h 77 % 0.0 mm 0.0 W/m2 CLR
23:15 10.9 °C 7.1 °C 1018.8 hPa West 18.5 km/h 18.5 km/h 77 % 0.0 mm 0.0 W/m2 CLR
23:20 11.0 °C 7.1 °C 1018.5 hPa NW 35.2 km/h 35.2 km/h 77 % 0.0 mm 0.0 W/m2 CLR
23:25 11.1 °C 7.0 °C 1018.5 hPa West 22.2 km/h 22.2 km/h 76 % 0.0 mm 0.0 W/m2 CLR
23:30 11.0 °C 7.1 °C 1018.5 hPa WNW 18.5 km/h 18.5 km/h 77 % 0.0 mm 0.0 W/m2 CLR
23:35 11.0 °C 7.1 °C 1018.5 hPa WNW 22.2 km/h 22.2 km/h 77 % 0.0 mm 0.0 W/m2 CLR
23:40 11.0 °C 7.1 °C 1018.5 hPa West 24.1 km/h 24.1 km/h 77 % 0.0 mm 0.0 W/m2 CLR
23:45 11.0 °C 7.1 °C 1018.5 hPa WNW 25.9 km/h 25.9 km/h 77 % 0.0 mm 0.0 W/m2 CLR
23:50 11.0 °C 7.1 °C 1018.5 hPa WNW 25.9 km/h 25.9 km/h 77 % 0.0 mm 0.0 W/m2 CLR
23:55 11.0 °C 7.1 °C 1018.5 hPa WNW 22.5 km/h 22.5 km/h 77 % 0.0 mm 0.0 W/m2 CLR
Lo Temps de Massalio
Compliments of Weather Underground - 1.25 mb